Terminal Aerodrome Forecast
Issued by NWS

Home | Current Version | Previous Version | Text Only | Print | Product List | Glossary On
Versions: 1 2 3 4 5 6 7 8 9 10 11 12 13 14 15 16 17 18 19 20 21 22 23 24 25 26 27 28 29 30 31 32 33 34 35 36 37 38 39 40 41 42 43 44 45 46 47 48 49 50
000
FTUS45 KGJT 061526 AAB
TAFTEX
TAF AMD
KTEX 061526Z 0615/0712 VRB03KT P6SM VCSH SCT010 OVC022
      TEMPO 0615/0617 3SM -SHRA BR BKN012 OVC035
     FM061700 VRB04KT P6SM VCSH SCT020 BKN040
      TEMPO 0617/0619 6SM -SHRA BKN028 OVC050
     FM062000 20005KT P6SM VCTS SCT050 BKN060CB
     FM070200 13005KT P6SM BKN050=

USA.gov is the U.S. government's official web portal to all federal, state and local government web resources and services.